Time;durP1;ratioP1;P1;durP2;ratioP2;P2;SDS_P1;SDS_P2;PMS_P1;PMS_P2;Temp;Humidity;BMP_temperature;BMP_pressure;BME280_temperature;BME280_humidity;BME280_pressure;Samples;Min_cycle;Max_cycle;Signal;HPM_P1;HPM_P2
2024/02/22 00:00:21;;;;;;;;;;;;;;;;;;;;;
2024/02/22 00:09:53;;;;;;;2.47;1.10;;;10.90;99.90;;;;;;5179185;22;20190;-96
2024/02/22 00:13:08;;;;;;;;;;;;;;;;;;;;;
2024/02/22 00:15:45;;;;;;;2.08;1.05;;;11.10;99.90;;;;;;5197625;22;20154;-96
2024/02/22 00:18:18;;;;;;;2.15;1.02;;;11.00;99.90;;;;;;5173299;22;20175;-96
2024/02/22 00:20:40;;;;;;;1.30;0.93;;;11.00;99.90;;;;;;5171706;22;20174;-95
2024/02/22 00:23:10;;;;;;;1.15;0.77;;;11.00;99.90;;;;;;5171263;22;20178;-96
2024/02/22 00:25:21;;;;;;;;;;;;;;;;;;;;;
2024/02/22 00:27:40;;;;;;;1.55;1.02;;;11.00;99.90;;;;;;5193593;22;20186;-96
2024/02/22 00:30:10;;;;;;;;;;;;;;;;;;;;;
2024/02/22 00:32:48;;;;;;;1.92;1.08;;;11.00;99.90;;;;;;5203497;22;20248;-96
2024/02/22 00:35:16;;;;;;;2.60;1.02;;;11.00;99.90;;;;;;5172311;23;20186;-96
2024/02/22 00:38:19;;;;;;;;;;;;;;;;;;;;;
2024/02/22 00:40:55;;;;;;;2.13;1.02;;;11.20;99.90;;;;;;5201494;22;20667;-96
2024/02/22 00:43:25;;;;;;;1.27;0.70;;;11.30;99.90;;;;;;5176046;22;20222;-95
2024/02/22 00:45:56;;;;;;;2.00;0.90;;;11.30;99.90;;;;;;5200470;22;20146;-96
2024/02/22 00:48:25;;;;;;;1.30;1.05;;;11.20;99.90;;;;;;5177519;22;20254;-96
2024/02/22 00:50:58;;;;;;;1.75;0.95;;;11.30;99.90;;;;;;5177375;22;20143;-96
2024/02/22 00:53:29;;;;;;;1.67;1.25;;;11.30;99.90;;;;;;5198861;22;20181;-96
2024/02/22 00:55:32;;;;;;;1.25;0.85;;;11.30;99.90;;;;;;5163219;23;20151;-96
2024/02/22 00:58:33;;;;;;;2.08;1.40;;;11.40;99.90;;;;;;5203406;22;20261;-96
2024/02/22 01:00:53;;;;;;;2.47;1.08;;;11.30;99.90;;;;;;5183970;22;20155;-96
2024/02/22 01:03:48;;;;;;;1.52;1.00;;;11.40;99.90;;;;;;5203381;22;20229;-96
2024/02/22 01:06:15;;;;;;;;;;;;;;;;;;;;;
2024/02/22 01:08:49;;;;;;;1.60;1.02;;;11.50;99.90;;;;;;5202316;22;20249;-96
2024/02/22 01:12:14;;;;;;;;;;;;;;;;;;;;;
2024/02/22 01:15:17;;;;;;;;;;;;;;;;;;;;;
2024/02/22 01:17:47;;;;;;;1.20;0.80;;;11.60;99.90;;;;;;5200720;22;20205;-96
2024/02/22 01:21:02;;;;;;;2.20;1.10;;;11.50;99.90;;;;;;5206088;22;20149;-96
2024/02/22 01:23:49;;;;;;;;;;;;;;;;;;;;;
2024/02/22 01:26:42;;;;;;;3.88;1.65;;;11.50;99.90;;;;;;5201284;22;20160;-96
2024/02/22 01:29:18;;;;;;;2.67;1.40;;;11.50;99.90;;;;;;5203948;22;20182;-96
2024/02/22 01:32:12;;;;;;;2.33;1.35;;;11.50;99.90;;;;;;5204831;22;20202;-96
2024/02/22 01:34:40;;;;;;;;;;;;;;;;;;;;;
2024/02/22 01:46:45;;;;;;;2.25;1.20;;;11.70;99.90;;;;;;5204136;22;20155;-96
2024/02/22 01:49:32;;;;;;;2.95;1.80;;;11.80;99.90;;;;;;5176236;22;20197;-95
2024/02/22 01:54:55;;;;;;;4.50;1.58;;;11.70;99.90;;;;;;5172894;22;20227;-96
2024/02/22 01:57:06;;;;;;;4.72;2.30;;;11.60;99.90;;;;;;5179231;23;20233;-96
2024/02/22 01:59:21;;;;;;;3.58;1.92;;;11.60;99.90;;;;;;5151585;22;20207;-96
2024/02/22 02:01:38;;;;;;;2.83;1.33;;;11.50;99.90;;;;;;5172327;22;20171;-96
2024/02/22 02:04:12;;;;;;;;;;;;;;;;;;;;;
2024/02/22 02:06:42;;;;;;;;;;;;;;;;;;;;;
2024/02/22 02:09:21;;;;;;;;;;;;;;;;;;;;;
2024/02/22 02:11:42;;;;;;;1.35;0.88;;;11.50;99.90;;;;;;5196799;22;20228;-95
2024/02/22 02:13:53;;;;;;;;;;;;;;;;;;;;;
2024/02/22 02:17:06;;;;;;;1.73;0.90;;;11.40;99.90;;;;;;5196954;22;20160;-95
2024/02/22 02:19:24;;;;;;;2.13;0.93;;;11.30;99.90;;;;;;5170077;23;20574;-96
2024/02/22 02:22:19;;;;;;;1.75;1.10;;;11.20;99.90;;;;;;5169086;23;20150;-96
2024/02/22 02:25:02;;;;;;;3.42;1.08;;;11.20;99.90;;;;;;5163965;22;20162;-96
2024/02/22 02:27:22;;;;;;;;;;;;;;;;;;;;;
2024/02/22 02:29:26;;;;;;;1.98;1.05;;;11.00;99.90;;;;;;5194465;22;20173;-95
2024/02/22 02:31:31;;;;;;;5.95;1.00;;;11.00;99.90;;;;;;5168801;23;20151;-94
2024/02/22 02:33:32;;;;;;;8.38;1.13;;;10.90;99.90;;;;;;5169124;23;20190;-94
2024/02/22 02:35:37;;;;;;;2.13;0.70;;;10.90;99.90;;;;;;5168881;23;20216;-94
2024/02/22 02:37:40;;;;;;;1.50;0.95;;;10.90;99.90;;;;;;5169005;23;20158;-96
2024/02/22 02:39:42;;;;;;;1.00;0.60;;;10.90;99.90;;;;;;5194193;22;20517;-96
2024/02/22 02:41:48;;;;;;;2.97;0.95;;;10.90;99.90;;;;;;5169102;23;20221;-96
2024/02/22 02:43:49;;;;;;;1.35;0.60;;;10.80;99.90;;;;;;5169377;23;20155;-95
2024/02/22 02:45:50;;;;;;;1.58;0.63;;;10.80;99.90;;;;;;5169106;22;20305;-94
2024/02/22 02:48:00;;;;;;;1.25;0.95;;;10.90;99.90;;;;;;5168914;23;21808;-94
2024/02/22 02:50:01;;;;;;;3.15;0.43;;;10.80;99.90;;;;;;5168932;22;20230;-95
2024/02/22 02:52:02;;;;;;;1.70;0.50;;;10.80;99.90;;;;;;5169418;23;20151;-95
2024/02/22 02:54:06;;;;;;;3.05;0.98;;;10.90;99.90;;;;;;5168802;23;20189;-96
2024/02/22 02:56:10;;;;;;;1.80;0.50;;;10.90;99.90;;;;;;5168430;23;20157;-96
2024/02/22 02:58:13;;;;;;;2.42;0.82;;;10.90;99.90;;;;;;5169385;22;20236;-95
2024/02/22 03:00:30;;;;;;;1.65;0.88;;;10.90;99.90;;;;;;5169351;22;20501;-96
2024/02/22 03:02:34;;;;;;;2.10;0.40;;;10.90;99.90;;;;;;5169269;23;20158;-95
2024/02/22 03:04:37;;;;;;;0.63;0.50;;;10.90;99.90;;;;;;5168993;23;20154;-95
2024/02/22 03:06:41;;;;;;;5.93;0.50;;;11.00;99.90;;;;;;5171176;23;20159;-96
2024/02/22 03:08:50;;;;;;;0.45;0.30;;;11.10;99.90;;;;;;5171568;23;20182;-96
2024/02/22 03:11:02;;;;;;;1.20;0.38;;;11.10;99.90;;;;;;5172401;22;20147;-96
2024/02/22 03:13:18;;;;;;;3.20;0.80;;;11.00;99.90;;;;;;5175085;22;20547;-95
2024/02/22 03:15:33;;;;;;;4.15;0.63;;;11.20;99.90;;;;;;5173404;22;20569;-96
2024/02/22 03:17:47;;;;;;;;;;;;;;;;;;;;;
2024/02/22 03:20:11;;;;;;;4.97;0.50;;;11.20;99.90;;;;;;5195880;22;20146;-96
2024/02/22 03:22:39;;;;;;;0.55;0.52;;;11.20;99.90;;;;;;5174413;23;20158;-96
2024/02/22 03:24:55;;;;;;;3.22;0.50;;;11.20;99.90;;;;;;5196592;22;20234;-96
2024/02/22 03:26:57;;;;;;;0.70;0.40;;;11.20;99.90;;;;;;5171983;23;20206;-96
2024/02/22 03:29:01;;;;;;;0.90;0.28;;;11.20;99.90;;;;;;5170100;23;20171;-96
2024/02/22 03:31:02;;;;;;;0.80;0.25;;;11.20;99.90;;;;;;5170754;23;20146;-96
2024/02/22 03:33:08;;;;;;;1.25;0.43;;;11.30;99.90;;;;;;5170611;23;20157;-95
2024/02/22 03:35:17;;;;;;;2.42;0.32;;;11.30;99.90;;;;;;5171117;22;20147;-96
2024/02/22 03:37:30;;;;;;;;;;;;;;;;;;;;;
2024/02/22 03:39:41;;;;;;;1.75;0.50;;;11.20;99.90;;;;;;5195851;22;20157;-95
2024/02/22 03:41:44;;;;;;;0.20;0.20;;;11.00;99.90;;;;;;5171221;23;20154;-96
2024/02/22 03:43:52;;;;;;;0.32;0.22;;;11.00;99.90;;;;;;5172310;22;20151;-95
2024/02/22 03:45:53;;;;;;;0.20;0.20;;;11.00;99.90;;;;;;5169977;23;20154;-94
2024/02/22 03:47:54;;;;;;;0.93;0.65;;;11.00;99.90;;;;;;5170281;23;20279;-96
2024/02/22 03:49:59;;;;;;;1.10;0.30;;;10.90;99.90;;;;;;5171719;23;20151;-96
2024/02/22 03:52:24;;;;;;;1.75;0.73;;;10.90;99.90;;;;;;5171287;22;20225;-96
2024/02/22 03:54:40;;;;;;;0.20;0.15;;;10.90;99.90;;;;;;5169803;22;20147;-96
2024/02/22 03:56:44;;;;;;;1.27;0.60;;;10.90;99.90;;;;;;5169735;23;20281;-95
2024/02/22 03:58:47;;;;;;;0.30;0.30;;;10.80;99.90;;;;;;5168757;23;20169;-95
2024/02/22 04:00:48;;;;;;;1.58;0.70;;;10.70;99.90;;;;;;5170402;23;20174;-95
2024/02/22 04:02:50;;;;;;;2.08;0.40;;;10.70;99.90;;;;;;5169747;23;20147;-96
2024/02/22 04:04:54;;;;;;;5.18;0.40;;;10.70;99.90;;;;;;5170863;23;20242;-95
2024/02/22 04:06:56;;;;;;;3.40;0.32;;;10.70;99.90;;;;;;5197276;22;20225;-95
2024/02/22 04:09:07;;;;;;;;;;;;;;;;;;;;;
2024/02/22 04:11:20;;;;;;;0.47;0.30;;;10.80;99.90;;;;;;5198550;22;20150;-95
2024/02/22 04:13:30;;;;;;;0.10;0.10;;;10.80;99.90;;;;;;5172167;23;20583;-95
2024/02/22 04:15:34;;;;;;;0.63;0.20;;;10.90;99.90;;;;;;5172188;23;20150;-96
2024/02/22 04:17:37;;;;;;;2.72;0.50;;;11.00;99.90;;;;;;5172386;23;20197;-95
2024/02/22 04:19:45;;;;;;;3.67;0.35;;;11.10;99.90;;;;;;5171159;23;20151;-96
2024/02/22 04:21:51;;;;;;;3.00;0.38;;;11.20;99.90;;;;;;5172681;23;20177;-96
2024/02/22 04:23:54;;;;;;;0.82;0.28;;;11.20;99.90;;;;;;5172606;22;20508;-96
2024/02/22 04:25:58;;;;;;;0.50;0.30;;;11.10;99.90;;;;;;5172423;23;20242;-96
2024/02/22 04:28:04;;;;;;;2.90;0.57;;;11.00;99.90;;;;;;5170119;23;20190;-96
2024/02/22 04:30:14;;;;;;;0.80;0.30;;;10.90;99.90;;;;;;5170695;23;20178;-96
2024/02/22 04:32:20;;;;;;;4.45;0.20;;;10.80;99.90;;;;;;5171790;22;20155;-94
2024/02/22 04:34:23;;;;;;;0.20;0.20;;;10.90;99.90;;;;;;5171426;23;20162;-96
2024/02/22 04:36:27;;;;;;;3.65;0.30;;;10.90;99.90;;;;;;5171776;22;20151;-96
2024/02/22 04:38:30;;;;;;;4.03;0.30;;;10.80;99.90;;;;;;5171034;23;20213;-95
2024/02/22 04:40:41;;;;;;;1.55;0.30;;;10.70;99.90;;;;;;5171876;23;20158;-95
2024/02/22 04:42:42;;;;;;;0.20;0.10;;;10.80;99.90;;;;;;5169697;23;20147;-95
2024/02/22 04:44:44;;;;;;;2.63;0.85;;;10.60;99.90;;;;;;5169808;23;20270;-94
2024/02/22 04:46:48;;;;;;;3.55;0.70;;;10.60;99.90;;;;;;5170654;22;20249;-95
2024/02/22 04:48:52;;;;;;;1.02;0.45;;;10.60;99.90;;;;;;5170140;22;20285;-96
2024/02/22 04:50:56;;;;;;;0.25;0.20;;;10.50;99.90;;;;;;5170060;23;20151;-95
2024/02/22 04:53:00;;;;;;;0.82;0.22;;;10.50;99.90;;;;;;5169815;22;20186;-96
2024/02/22 04:55:08;;;;;;;1.42;0.35;;;10.50;99.90;;;;;;5170292;22;20154;-95
2024/02/22 04:57:14;;;;;;;0.25;0.20;;;10.50;99.90;;;;;;5170378;22;20158;-96
2024/02/22 04:59:17;;;;;;;5.15;0.60;;;10.70;99.90;;;;;;5170224;23;20548;-96
2024/02/22 05:01:21;;;;;;;2.55;0.30;;;10.60;99.90;;;;;;5170739;22;20254;-96
2024/02/22 05:03:23;;;;;;;1.15;0.50;;;10.60;99.90;;;;;;5170378;23;20233;-96
2024/02/22 05:05:26;;;;;;;0.40;0.20;;;10.60;99.90;;;;;;5171525;23;20178;-96
2024/02/22 05:07:28;;;;;;;1.40;0.70;;;10.70;99.90;;;;;;5171626;23;20195;-95
2024/02/22 05:09:34;;;;;;;0.40;0.22;;;10.70;99.90;;;;;;5196038;22;20170;-96
2024/02/22 05:11:35;;;;;;;0.70;0.40;;;10.80;99.90;;;;;;5195914;22;20153;-96
2024/02/22 05:13:50;;;;;;;1.08;0.40;;;10.80;99.90;;;;;;5171711;22;20179;-96
2024/02/22 05:15:51;;;;;;;1.98;0.65;;;10.70;99.90;;;;;;5170811;23;20538;-96
2024/02/22 05:17:52;;;;;;;0.47;0.30;;;10.80;99.90;;;;;;5197147;22;20204;-96
2024/02/22 05:20:00;;;;;;;0.93;0.30;;;10.70;99.90;;;;;;5172270;23;20151;-96
2024/02/22 05:22:01;;;;;;;1.50;0.50;;;10.60;99.90;;;;;;5172244;23;20143;-96
2024/02/22 05:24:03;;;;;;;4.30;0.30;;;10.50;99.90;;;;;;5171941;23;20159;-96
2024/02/22 05:26:04;;;;;;;0.57;0.30;;;10.60;99.90;;;;;;5196253;22;20142;-96
2024/02/22 05:28:11;;;;;;;0.30;0.20;;;10.50;99.90;;;;;;5196018;22;20255;-96
2024/02/22 05:30:13;;;;;;;1.85;0.20;;;10.50;99.90;;;;;;5170939;23;20222;-96
2024/02/22 05:32:19;;;;;;;0.32;0.32;;;10.50;99.90;;;;;;5172007;22;20159;-96
2024/02/22 05:34:23;;;;;;;1.05;0.60;;;10.50;99.90;;;;;;5195425;22;20153;-96
2024/02/22 05:36:29;;;;;;;0.50;0.20;;;10.40;99.90;;;;;;5170288;23;20201;-96
2024/02/22 05:38:35;;;;;;;0.47;0.17;;;10.40;99.90;;;;;;5170568;23;20249;-96
2024/02/22 05:40:43;;;;;;;0.77;0.30;;;10.30;99.90;;;;;;5171425;22;20185;-96
2024/02/22 05:42:51;;;;;;;0.90;0.40;;;10.30;99.90;;;;;;5170350;23;20151;-96
2024/02/22 05:44:52;;;;;;;0.20;0.10;;;10.30;99.90;;;;;;5170329;23;20174;-96
2024/02/22 05:46:54;;;;;;;1.13;0.40;;;10.20;99.90;;;;;;5171019;23;20151;-95
2024/02/22 05:49:00;;;;;;;0.20;0.10;;;10.40;99.90;;;;;;5171467;23;20246;-96
2024/02/22 05:51:11;;;;;;;0.75;0.30;;;10.50;99.90;;;;;;5170575;23;20147;-96
2024/02/22 05:53:17;;;;;;;0.40;0.30;;;10.50;99.90;;;;;;5171862;22;20653;-95
2024/02/22 05:55:18;;;;;;;0.43;0.20;;;10.50;99.90;;;;;;5171089;23;20182;-96
2024/02/22 05:57:20;;;;;;;0.20;0.10;;;10.40;99.90;;;;;;5171585;23;20158;-96
2024/02/22 05:59:24;;;;;;;0.28;0.20;;;10.20;99.90;;;;;;5171079;22;20506;-96
2024/02/22 06:01:30;;;;;;;0.50;0.40;;;10.10;99.90;;;;;;5172029;22;20193;-96
2024/02/22 06:03:37;;;;;;;0.40;0.20;;;10.10;99.90;;;;;;5171051;23;20208;-96
2024/02/22 06:05:48;;;;;;;1.95;0.60;;;10.10;99.90;;;;;;5171286;22;20158;-96
2024/02/22 06:07:49;;;;;;;0.90;0.30;;;10.10;99.90;;;;;;5170220;23;20636;-95
2024/02/22 06:09:50;;;;;;;1.85;0.35;;;10.20;99.90;;;;;;5168996;23;20155;-94
2024/02/22 06:11:51;;;;;;;0.95;0.40;;;10.20;99.90;;;;;;5168939;22;20234;-95
2024/02/22 06:13:52;;;;;;;0.45;0.20;;;10.30;99.90;;;;;;5168312;23;20147;-95
2024/02/22 06:15:53;;;;;;;0.52;0.20;;;10.40;99.90;;;;;;5168947;23;20230;-95
2024/02/22 06:17:54;;;;;;;0.10;0.08;;;10.50;99.90;;;;;;5169619;23;20254;-95
2024/02/22 06:19:54;;;;;;;0.40;0.13;;;10.40;99.90;;;;;;5169209;23;20143;-95
2024/02/22 06:21:56;;;;;;;0.73;0.38;;;10.40;99.90;;;;;;5169284;23;20155;-95
2024/02/22 06:23:56;;;;;;;0.20;0.20;;;10.40;99.90;;;;;;5170100;23;20248;-95
2024/02/22 06:25:58;;;;;;;0.57;0.30;;;10.40;99.90;;;;;;5169828;23;20316;-95
2024/02/22 06:27:59;;;;;;;0.50;0.20;;;10.30;99.90;;;;;;5168432;22;20218;-94
2024/02/22 06:30:00;;;;;;;0.45;0.22;;;10.20;99.90;;;;;;5194021;22;20157;-95
2024/02/22 10:24:30;;;;;;;1.08;0.52;;;12.70;99.90;;;;;;5220158;22;20228;-95
2024/02/22 12:38:00;;;;;;;;;;;;;;;;;;;;;
2024/02/22 12:41:46;;;;;;;;;;;;;;;;;;;;;
2024/02/22 12:59:20;;;;;;;1.35;0.20;;;13.50;99.90;;;;;;5146063;23;20176;-95
2024/02/22 13:02:24;;;;;;;0.52;0.20;;;13.50;99.90;;;;;;5082848;23;20598;-95
2024/02/22 13:05:46;;;;;;;0.55;0.30;;;13.50;99.90;;;;;;5094536;23;20156;-96
2024/02/22 13:19:54;;;;;;;5.00;0.45;;;13.70;99.90;;;;;;5156510;22;20287;-94
2024/02/22 13:22:46;;;;;;;0.70;0.13;;;13.70;99.90;;;;;;5193869;22;20170;-93
2024/02/22 13:25:36;;;;;;;0.10;0.05;;;13.60;99.90;;;;;;5096783;23;20156;-91
2024/02/22 13:38:03;;;;;;;;;;;;;;;;;;;;;
2024/02/22 13:40:38;;;;;;;0.00;0.00;;;13.70;99.90;;;;;;4998480;23;20755;-94
2024/02/22 13:43:37;;;;;;;1.95;0.45;;;13.70;99.90;;;;;;5000814;23;20174;-95
2024/02/22 13:53:28;;;;;;;0.10;0.10;;;13.90;99.90;;;;;;5047496;23;20158;-92
2024/02/22 13:59:43;;;;;;;0.47;0.10;;;13.80;99.90;;;;;;5024743;23;20272;-94
2024/02/22 14:02:26;;;;;;;0.25;0.00;;;13.70;99.90;;;;;;4982066;23;20161;-96
2024/02/22 14:08:07;;;;;;;0.65;0.40;;;13.60;99.90;;;;;;5035953;23;20220;-93
2024/02/22 14:10:41;;;;;;;0.50;0.38;;;13.60;99.90;;;;;;5112421;23;20162;-94
2024/02/22 14:16:35;;;;;;;;;;;;;;;;;;;;;
2024/02/22 14:19:19;;;;;;;2.05;0.90;;;13.70;99.90;;;;;;5094622;23;20169;-95
2024/02/22 14:22:07;;;;;;;0.77;0.30;;;13.70;99.90;;;;;;5072120;23;20176;-95
2024/02/22 14:24:39;;;;;;;;;;;;;;;;;;;;;
2024/02/22 14:30:20;;;;;;;;;;;;;;;;;;;;;
2024/02/22 14:33:28;;;;;;;2.20;0.50;;;13.90;99.90;;;;;;5068747;23;20820;-96
2024/02/22 14:35:46;;;;;;;;;;;;;;;;;;;;;
2024/02/22 14:38:01;;;;;;;1.13;0.40;;;13.70;99.90;;;;;;5095106;23;20176;-94
2024/02/22 14:40:47;;;;;;;0.43;0.40;;;13.70;99.90;;;;;;5093163;23;20156;-95
2024/02/22 14:43:01;;;;;;;0.40;0.20;;;13.60;99.90;;;;;;5150300;23;20154;-95
2024/02/22 14:45:17;;;;;;;4.10;0.82;;;13.70;99.90;;;;;;5122600;23;20183;-94
2024/02/22 14:47:46;;;;;;;0.22;0.20;;;13.60;99.90;;;;;;5125002;23;20246;-94
2024/02/22 14:50:25;;;;;;;1.58;0.40;;;13.60;99.90;;;;;;5150075;23;20135;-94
2024/02/22 14:53:35;;;;;;;0.20;0.20;;;13.60;99.90;;;;;;5145820;23;20162;-94
2024/02/22 14:56:02;;;;;;;0.57;0.17;;;13.50;99.90;;;;;;5149256;23;20230;-96
2024/02/22 14:58:23;;;;;;;0.40;0.30;;;13.60;99.90;;;;;;5105028;23;20172;-94
2024/02/22 15:00:49;;;;;;;0.20;0.20;;;13.50;99.90;;;;;;5120184;23;20164;-94
2024/02/22 15:03:34;;;;;;;0.70;0.38;;;13.60;99.90;;;;;;5108993;23;20199;-95
2024/02/22 15:05:40;;;;;;;0.05;0.00;;;13.60;99.90;;;;;;5119777;23;20156;-95
2024/02/22 15:08:07;;;;;;;0.35;0.20;;;13.60;99.90;;;;;;5120399;23;20194;-94
2024/02/22 15:10:35;;;;;;;0.13;0.10;;;13.50;99.90;;;;;;5119996;23;20599;-94
2024/02/22 15:12:44;;;;;;;1.15;0.40;;;13.50;99.90;;;;;;5120607;23;20143;-93
2024/02/22 15:14:57;;;;;;;0.20;0.17;;;13.50;99.90;;;;;;5123125;23;20195;-93
2024/02/22 15:17:30;;;;;;;0.05;0.05;;;13.50;99.90;;;;;;5144425;23;20154;-95
2024/02/22 15:19:50;;;;;;;0.82;0.20;;;13.60;99.90;;;;;;5022091;23;20251;-94
2024/02/22 15:22:17;;;;;;;0.30;0.20;;;13.50;99.90;;;;;;5120535;23;20177;-94
2024/02/22 15:29:20;;;;;;;;;;;;;;;;;;;;;
2024/02/22 15:34:35;;;;;;;0.00;0.00;;;13.00;99.90;;;;;;4931912;24;20161;-94
2024/02/22 15:37:40;;;;;;;0.20;0.13;;;13.00;99.90;;;;;;5024864;23;20540;-95
2024/02/22 15:47:04;;;;;;;0.77;0.15;;;13.10;99.90;;;;;;4906703;24;20231;-95
2024/02/22 15:52:02;;;;;;;0.00;0.00;;;13.10;99.90;;;;;;5144570;23;20419;-94
2024/02/22 15:54:12;;;;;;;0.10;0.00;;;13.00;99.90;;;;;;5045924;23;20161;-94
2024/02/22 15:59:38;;;;;;;0.45;0.10;;;13.00;99.90;;;;;;4995255;23;20221;-93
2024/02/22 16:02:57;;;;;;;0.08;0.08;;;13.10;99.90;;;;;;4973790;23;20156;-94
2024/02/22 16:07:34;;;;;;;0.50;0.40;;;12.90;99.90;;;;;;4959054;24;20720;-96
2024/02/22 16:14:10;;;;;;;0.30;0.10;;;12.70;99.90;;;;;;4870437;24;20159;-96
2024/02/22 16:16:39;;;;;;;0.00;0.00;;;12.60;99.90;;;;;;4916302;24;20270;-96
2024/02/22 16:19:22;;;;;;;0.40;0.20;;;12.50;99.90;;;;;;4951777;23;20611;-95
2024/02/22 16:22:11;;;;;;;;;;;;;;;;;;;;;
2024/02/22 16:24:45;;;;;;;0.00;0.00;;;12.50;99.90;;;;;;4994064;23;20164;-96
2024/02/22 16:27:41;;;;;;;0.43;0.00;;;12.50;99.90;;;;;;5029546;23;20241;-93
2024/02/22 16:30:42;;;;;;;0.03;0.00;;;12.50;99.90;;;;;;5112563;23;20538;-95
2024/02/22 16:36:18;;;;;;;0.00;0.00;;;12.60;99.90;;;;;;5001866;23;20159;-94
2024/02/22 16:39:07;;;;;;;0.00;0.00;;;12.60;99.90;;;;;;4983642;23;20176;-96
2024/02/22 16:41:53;;;;;;;0.43;0.20;;;12.60;99.90;;;;;;5007298;23;20163;-96
2024/02/22 16:44:33;;;;;;;0.00;0.00;;;12.60;99.90;;;;;;4966647;23;20170;-95
2024/02/22 16:47:03;;;;;;;2.00;0.00;;;12.60;99.90;;;;;;4929732;24;20169;-96
2024/02/22 16:53:38;;;;;;;0.20;0.00;;;12.20;99.90;;;;;;4939690;23;20189;-96
2024/02/22 17:00:09;;;;;;;0.90;0.47;;;10.00;99.90;;;;;;4883017;24;20194;-94
2024/02/22 17:02:41;;;;;;;0.80;0.50;;;9.60;99.90;;;;;;4870426;24;20217;-95
2024/02/22 17:05:54;;;;;;;;;;;;;;;;;;;;;
2024/02/22 17:12:09;;;;;;;0.20;0.10;;;9.30;99.90;;;;;;4857585;24;20168;-96
2024/02/22 17:14:55;;;;;;;6.22;0.40;;;9.40;99.90;;;;;;4854305;24;20192;-95
2024/02/22 17:21:04;;;;;;;1.35;0.20;;;9.70;99.90;;;;;;4916592;24;20169;-96
2024/02/22 17:23:49;;;;;;;;;;;;;;;;;;;;;
2024/02/22 17:26:12;;;;;;;5.97;0.75;;;10.00;99.90;;;;;;4979739;23;20160;-96
2024/02/22 17:28:37;;;;;;;3.80;0.75;;;10.10;99.90;;;;;;5044833;23;20201;-95
2024/02/22 17:31:08;;;;;;;13.57;1.27;;;10.10;99.90;;;;;;5050546;23;20193;-96
2024/02/22 17:33:19;;;;;;;0.82;0.20;;;10.00;99.90;;;;;;5045047;23;20162;-96
2024/02/22 17:35:24;;;;;;;4.35;0.30;;;10.00;99.90;;;;;;5072399;23;20185;-95
2024/02/22 17:37:46;;;;;;;6.72;0.88;;;10.00;99.90;;;;;;5098641;23;20149;-95
2024/02/22 17:39:48;;;;;;;1.42;0.30;;;9.80;99.90;;;;;;5072408;23;20153;-95
2024/02/22 17:41:51;;;;;;;0.73;0.40;;;9.80;99.90;;;;;;5122802;23;20235;-96
2024/02/22 17:43:53;;;;;;;1.20;0.45;;;9.70;99.90;;;;;;5120702;23;20149;-95
2024/02/22 17:45:58;;;;;;;2.65;0.20;;;9.60;99.90;;;;;;5122452;23;20206;-94
2024/02/22 17:48:02;;;;;;;0.60;0.55;;;9.60;99.90;;;;;;5073814;23;20197;-95
2024/02/22 17:50:07;;;;;;;8.43;1.52;;;9.60;99.90;;;;;;5095730;23;20175;-95
2024/02/22 17:52:08;;;;;;;0.70;0.50;;;9.60;99.90;;;;;;5070960;23;20617;-95
2024/02/22 17:54:12;;;;;;;1.02;0.55;;;9.50;99.90;;;;;;5094573;23;20245;-96
2024/02/22 17:56:13;;;;;;;4.68;1.02;;;9.50;99.90;;;;;;5069649;23;20240;-96
2024/02/22 17:58:14;;;;;;;0.88;0.30;;;9.50;99.90;;;;;;5070067;23;20173;-94
2024/02/22 18:00:23;;;;;;;2.67;0.30;;;9.60;99.90;;;;;;5070042;23;20154;-95
2024/02/22 18:02:24;;;;;;;0.57;0.30;;;9.60;99.90;;;;;;5081820;23;20168;-95
2024/02/22 18:04:25;;;;;;;1.73;0.40;;;9.50;99.90;;;;;;5094153;23;20183;-95
2024/02/22 18:06:26;;;;;;;4.40;0.50;;;9.60;99.90;;;;;;5094875;23;20157;-95
2024/02/22 18:08:27;;;;;;;5.03;0.60;;;9.50;99.90;;;;;;5118703;23;20188;-95
2024/02/22 18:10:29;;;;;;;0.63;0.10;;;9.60;99.90;;;;;;5094043;23;20149;-94
2024/02/22 18:12:30;;;;;;;3.25;0.80;;;9.50;99.90;;;;;;5094034;23;20157;-95
2024/02/22 18:14:32;;;;;;;1.27;0.17;;;9.40;99.90;;;;;;5094656;23;20201;-96
2024/02/22 18:16:34;;;;;;;4.50;0.98;;;9.40;99.90;;;;;;5094914;23;20492;-96
2024/02/22 18:18:36;;;;;;;0.20;0.13;;;9.40;99.90;;;;;;5119983;23;20199;-95
2024/02/22 18:20:37;;;;;;;3.22;0.50;;;9.40;99.90;;;;;;5119175;23;20148;-95
2024/02/22 18:22:38;;;;;;;0.57;0.32;;;9.40;99.90;;;;;;5094327;23;20208;-95
2024/02/22 18:24:42;;;;;;;0.52;0.15;;;9.40;99.90;;;;;;5119180;23;20151;-95
2024/02/22 18:26:43;;;;;;;0.90;0.10;;;9.40;99.90;;;;;;5094123;23;20472;-95
2024/02/22 18:28:44;;;;;;;0.22;0.13;;;9.40;99.90;;;;;;5093914;23;20193;-95
2024/02/22 18:30:47;;;;;;;0.73;0.20;;;9.40;99.90;;;;;;5094337;23;20182;-94
2024/02/22 18:32:50;;;;;;;0.77;0.38;;;9.40;99.90;;;;;;5094409;23;20253;-96
2024/02/22 18:34:51;;;;;;;6.28;0.63;;;9.50;99.90;;;;;;5118747;23;20159;-93
2024/02/22 18:36:52;;;;;;;3.60;0.30;;;9.40;99.90;;;;;;5094052;23;20165;-95
2024/02/22 18:38:53;;;;;;;2.50;0.65;;;9.40;99.90;;;;;;5118351;23;20176;-95
2024/02/22 18:40:54;;;;;;;3.90;0.85;;;9.50;99.90;;;;;;5094424;23;20584;-94
2024/02/22 18:42:56;;;;;;;1.25;0.15;;;9.50;99.90;;;;;;5093864;23;20291;-93
2024/02/22 18:44:57;;;;;;;7.85;0.63;;;9.50;99.90;;;;;;5118617;23;20203;-95
2024/02/22 18:46:58;;;;;;;1.85;0.50;;;9.40;99.90;;;;;;5094376;23;20157;-96
2024/02/22 18:48:59;;;;;;;8.07;0.32;;;9.30;99.90;;;;;;5118894;23;20274;-94
2024/02/22 18:51:00;;;;;;;9.23;0.63;;;9.20;99.90;;;;;;5094313;23;20214;-94
2024/02/22 18:53:01;;;;;;;0.70;0.20;;;9.30;99.90;;;;;;5094158;23;20160;-95
2024/02/22 18:55:05;;;;;;;2.00;0.50;;;9.30;99.90;;;;;;5093998;23;20145;-95
2024/02/22 18:57:06;;;;;;;9.20;0.65;;;9.30;99.90;;;;;;5094211;23;20243;-94
2024/02/22 18:59:07;;;;;;;9.80;0.40;;;9.30;99.90;;;;;;5093958;23;20260;-96
2024/02/22 19:01:12;;;;;;;2.53;0.50;;;9.20;99.90;;;;;;5093914;23;20449;-95
2024/02/22 19:03:16;;;;;;;2.00;1.13;;;9.20;99.90;;;;;;5093911;23;20216;-95
2024/02/22 19:05:17;;;;;;;1.33;0.38;;;9.30;99.90;;;;;;5118884;23;20152;-94
2024/02/22 19:07:20;;;;;;;1.10;0.40;;;9.20;99.90;;;;;;5094164;23;20185;-95
2024/02/22 19:09:24;;;;;;;4.03;1.02;;;9.20;99.90;;;;;;5094416;23;20517;-96
2024/02/22 19:11:26;;;;;;;0.85;0.35;;;9.10;99.90;;;;;;5094136;23;20213;-94
2024/02/22 19:13:29;;;;;;;5.82;0.68;;;9.10;99.90;;;;;;5093957;23;20160;-95
2024/02/22 19:15:30;;;;;;;0.95;0.30;;;9.10;99.90;;;;;;5093932;23;20153;-95
2024/02/22 19:17:31;;;;;;;5.93;0.60;;;9.10;99.90;;;;;;5093970;23;20163;-93
2024/02/22 19:19:32;;;;;;;4.80;1.08;;;9.10;99.90;;;;;;5118467;23;20551;-95
2024/02/22 19:21:39;;;;;;;3.65;0.50;;;9.00;99.90;;;;;;5094254;23;20204;-95
2024/02/22 19:23:45;;;;;;;6.35;0.60;;;9.00;99.90;;;;;;5094176;23;20156;-96
2024/02/22 19:25:49;;;;;;;1.30;0.57;;;8.90;99.90;;;;;;5118190;23;20257;-95
2024/02/22 19:27:55;;;;;;;5.65;0.50;;;8.90;99.90;;;;;;5093851;23;20275;-95
2024/02/22 19:29:59;;;;;;;1.50;0.73;;;8.90;99.90;;;;;;5093971;23;20153;-92
2024/02/22 19:32:02;;;;;;;1.33;0.60;;;8.80;99.90;;;;;;5093504;23;20596;-95
2024/02/22 19:34:03;;;;;;;4.07;0.57;;;8.80;99.90;;;;;;5093396;23;20153;-95
2024/02/22 19:36:07;;;;;;;1.02;0.55;;;8.80;99.90;;;;;;5119039;23;20167;-95
2024/02/22 19:38:13;;;;;;;3.63;0.73;;;8.90;99.90;;;;;;5093493;23;20168;-95
2024/02/22 19:40:14;;;;;;;0.10;0.10;;;8.80;99.90;;;;;;5094109;23;20237;-95
2024/02/22 19:42:16;;;;;;;7.47;1.10;;;8.90;99.90;;;;;;5093958;23;20145;-93
2024/02/22 19:44:19;;;;;;;0.60;0.20;;;8.80;99.90;;;;;;5093951;23;20167;-96
2024/02/22 19:46:22;;;;;;;4.30;0.60;;;8.80;99.90;;;;;;5118378;23;20187;-95
2024/02/22 19:48:23;;;;;;;0.35;0.10;;;8.80;99.90;;;;;;5118165;23;20242;-95
2024/02/22 19:50:27;;;;;;;1.20;0.40;;;8.80;99.90;;;;;;5118639;23;20167;-95
2024/02/22 19:52:31;;;;;;;1.13;0.22;;;8.80;99.90;;;;;;5095149;23;20161;-96
2024/02/22 19:54:32;;;;;;;1.50;0.30;;;8.80;99.90;;;;;;5094077;23;20475;-95
2024/02/22 19:56:33;;;;;;;3.53;0.13;;;8.90;99.90;;;;;;5094318;23;20247;-94
2024/02/22 19:58:34;;;;;;;2.83;0.00;;;8.80;99.90;;;;;;5093590;23;20168;-94
2024/02/22 20:00:38;;;;;;;1.88;0.00;;;8.80;99.90;;;;;;5094128;23;20218;-94
2024/02/22 20:02:41;;;;;;;2.47;0.73;;;8.90;99.90;;;;;;5093633;23;20160;-96
2024/02/22 20:04:43;;;;;;;4.20;0.20;;;8.80;99.90;;;;;;5118525;23;20156;-93
2024/02/22 20:06:44;;;;;;;0.50;0.35;;;8.70;99.90;;;;;;5093720;23;20149;-94
2024/02/22 20:08:45;;;;;;;0.45;0.28;;;8.70;99.90;;;;;;5093316;23;20227;-94
2024/02/22 20:10:47;;;;;;;2.17;0.10;;;8.60;99.90;;;;;;5118175;23;20152;-95
2024/02/22 20:12:49;;;;;;;1.08;0.20;;;8.50;99.90;;;;;;5118532;23;20156;-94
2024/02/22 20:14:50;;;;;;;0.10;0.00;;;8.50;99.90;;;;;;5118229;23;20899;-96
2024/02/22 20:16:53;;;;;;;2.28;0.15;;;8.50;99.90;;;;;;5118613;23;20599;-94
2024/02/22 20:18:54;;;;;;;1.20;0.20;;;8.60;99.90;;;;;;5094136;23;20183;-95
2024/02/22 20:21:00;;;;;;;1.27;0.80;;;8.60;99.90;;;;;;5118366;23;20184;-95
2024/02/22 20:23:01;;;;;;;13.70;0.98;;;8.50;99.90;;;;;;5094612;23;20153;-94
2024/02/22 20:25:07;;;;;;;1.63;0.32;;;8.40;99.90;;;;;;5094206;23;20157;-95
2024/02/22 20:27:08;;;;;;;0.22;0.20;;;8.40;99.90;;;;;;5094274;23;20153;-95